createdAt,value
2023-05-03T00:01:42.966Z,56.53
2023-05-03T00:04:09.543Z,56.38
2023-05-03T00:06:36.008Z,56.64
2023-05-03T00:09:03.561Z,56.18
2023-05-03T00:11:30.111Z,56.64
2023-05-03T00:13:56.603Z,56.30
2023-05-03T00:16:23.470Z,56.39
2023-05-03T00:18:49.926Z,56.61
2023-05-03T00:21:16.313Z,56.49
2023-05-03T00:23:42.805Z,56.44
2023-05-03T00:26:09.900Z,56.26
2023-05-03T00:28:36.478Z,56.47
2023-05-03T00:31:03.009Z,56.46
2023-05-03T00:33:29.349Z,56.71
2023-05-03T00:35:55.745Z,56.40
2023-05-03T00:38:22.423Z,56.29
2023-05-03T00:40:48.809Z,56.47
2023-05-03T00:43:15.433Z,56.40
2023-05-03T00:45:42.079Z,56.33
2023-05-03T00:48:08.408Z,56.31
2023-05-03T00:50:34.797Z,56.62
2023-05-03T00:53:01.126Z,56.44
2023-05-03T00:55:27.495Z,56.28
2023-05-03T00:57:53.941Z,56.11
2023-05-03T01:00:20.328Z,56.39
2023-05-03T01:02:47.286Z,56.47
2023-05-03T01:05:13.766Z,56.47
2023-05-03T01:07:40.480Z,56.11
2023-05-03T01:10:06.911Z,56.26
2023-05-03T01:12:33.697Z,56.31
2023-05-03T01:15:00.476Z,56.28
2023-05-03T01:17:27.417Z,56.37
2023-05-03T01:19:53.982Z,56.45
2023-05-03T01:22:20.803Z,56.43
2023-05-03T01:24:47.832Z,56.34
2023-05-03T01:27:14.769Z,56.14
2023-05-03T01:29:44.570Z,56.41
2023-05-03T01:32:13.490Z,56.24
2023-05-03T01:34:42.242Z,56.16
2023-05-03T01:37:08.741Z,56.12
2023-05-03T01:39:35.491Z,56.45
2023-05-03T01:42:02.005Z,56.10
2023-05-03T01:44:28.511Z,56.04
2023-05-03T01:46:55.025Z,56.23
2023-05-03T01:49:21.377Z,56.23
2023-05-03T01:51:48.056Z,56.08
2023-05-03T01:54:14.553Z,55.97
2023-05-03T01:56:40.916Z,56.32
2023-05-03T01:59:07.261Z,56.10
2023-05-03T02:01:33.963Z,56.43
2023-05-03T02:04:00.436Z,56.04
2023-05-03T02:06:27.758Z,56.01
2023-05-03T02:08:54.461Z,56.00
2023-05-03T02:11:20.883Z,56.26
2023-05-03T02:13:49.020Z,56.08
2023-05-03T02:16:15.437Z,56.23
2023-05-03T02:18:41.927Z,56.25
2023-05-03T02:21:08.511Z,55.89
2023-05-03T02:23:35.445Z,56.04
2023-05-03T02:26:03.465Z,56.05
2023-05-03T02:28:31.398Z,56.08
2023-05-03T02:30:57.873Z,56.00
2023-05-03T02:33:25.767Z,56.04
2023-05-03T02:35:52.167Z,55.98
2023-05-03T02:38:18.683Z,55.87
2023-05-03T02:40:45.602Z,55.83
2023-05-03T02:43:12.295Z,55.92
2023-05-03T02:45:39.051Z,55.94
2023-05-03T02:48:05.380Z,55.69
2023-05-03T02:50:31.840Z,55.88
2023-05-03T02:52:58.265Z,56.02
2023-05-03T02:55:27.197Z,55.73
2023-05-03T02:57:53.831Z,55.51
2023-05-03T03:00:20.269Z,55.84
2023-05-03T03:02:46.719Z,55.94
2023-05-03T03:05:13.135Z,55.83
2023-05-03T03:07:39.628Z,55.51
2023-05-03T03:10:06.032Z,55.47
2023-05-03T03:12:32.320Z,55.71
2023-05-03T03:14:58.824Z,55.56
2023-05-03T03:17:25.196Z,55.85
2023-05-03T03:19:51.596Z,55.47
2023-05-03T03:22:18.228Z,55.73
2023-05-03T03:24:44.814Z,55.51
2023-05-03T03:27:11.275Z,55.61
2023-05-03T03:29:37.645Z,55.37
2023-05-03T03:32:04.404Z,55.50
2023-05-03T03:34:30.944Z,55.32
2023-05-03T03:36:57.307Z,55.51
2023-05-03T03:39:23.631Z,55.32
2023-05-03T03:41:51.554Z,55.22
2023-05-03T03:44:19.235Z,55.30
2023-05-03T03:46:45.859Z,55.43
2023-05-03T03:49:12.346Z,55.45
2023-05-03T03:51:38.746Z,55.66
2023-05-03T03:54:07.388Z,55.61
2023-05-03T03:56:33.786Z,55.32
2023-05-03T03:59:00.789Z,55.91
2023-05-03T04:01:27.200Z,55.67
2023-05-03T04:03:53.737Z,55.72
2023-05-03T04:06:20.652Z,55.61
2023-05-03T04:08:47.255Z,55.67
2023-05-03T04:11:13.655Z,55.58
2023-05-03T04:13:40.006Z,55.30
2023-05-03T04:16:06.529Z,55.56
2023-05-03T04:18:32.851Z,55.42
2023-05-03T04:20:59.400Z,55.46
2023-05-03T04:23:25.810Z,55.17
2023-05-03T04:25:52.191Z,55.31
2023-05-03T04:28:18.529Z,55.64
2023-05-03T04:30:45.303Z,55.63
2023-05-03T04:33:11.958Z,55.72
2023-05-03T04:35:38.513Z,55.18
2023-05-03T04:38:05.055Z,55.22
2023-05-03T04:40:31.583Z,55.41
2023-05-03T04:42:57.968Z,55.46
2023-05-03T04:45:24.706Z,55.49
2023-05-03T04:47:51.374Z,55.58
2023-05-03T04:50:17.900Z,55.45
2023-05-03T04:52:44.297Z,55.43
2023-05-03T04:55:10.793Z,55.49
2023-05-03T04:57:37.133Z,55.25
2023-05-03T05:00:04.545Z,55.38
2023-05-03T05:02:31.180Z,55.50
2023-05-03T05:04:57.772Z,55.77
2023-05-03T05:07:24.154Z,55.71
2023-05-03T05:09:50.468Z,55.58
2023-05-03T05:12:16.808Z,55.39
2023-05-03T05:14:43.333Z,55.62
2023-05-03T05:17:09.815Z,55.63
2023-05-03T05:19:36.266Z,55.18
2023-05-03T05:22:03.045Z,55.51
2023-05-03T05:24:29.587Z,55.50
2023-05-03T05:26:55.968Z,55.83
2023-05-03T05:29:22.517Z,55.43
2023-05-03T05:31:48.928Z,55.72
2023-05-03T05:34:15.396Z,55.30
2023-05-03T05:36:43.965Z,55.26
2023-05-03T05:39:10.301Z,55.42
2023-05-03T05:41:36.699Z,55.49
2023-05-03T05:44:03.079Z,55.41
2023-05-03T05:46:29.460Z,55.40
2023-05-03T05:48:55.961Z,55.32
2023-05-03T05:51:22.243Z,55.59
2023-05-03T05:53:48.888Z,55.30
2023-05-03T05:56:15.196Z,55.22
2023-05-03T05:58:41.710Z,55.22
2023-05-03T06:01:08.774Z,55.38
2023-05-03T06:03:35.278Z,55.31
2023-05-03T06:06:01.712Z,55.09
2023-05-03T06:08:28.520Z,55.12
2023-05-03T06:10:55.072Z,55.48
2023-05-03T06:13:21.554Z,55.42
2023-05-03T06:15:47.857Z,55.32
2023-05-03T06:18:14.717Z,55.41
2023-05-03T06:20:41.390Z,55.37
2023-05-03T06:23:07.806Z,55.38
2023-05-03T06:25:34.457Z,55.55
2023-05-03T06:28:00.853Z,55.29
2023-05-03T06:30:27.981Z,55.19
2023-05-03T06:33:00.735Z,55.18
2023-05-03T06:35:27.379Z,55.33
2023-05-03T06:37:53.767Z,55.05
2023-05-03T06:40:20.340Z,55.53
2023-05-03T06:42:46.977Z,55.38
2023-05-03T06:45:13.690Z,55.17
2023-05-03T06:47:40.438Z,55.42
2023-05-03T06:50:07.363Z,55.27
2023-05-03T06:52:33.826Z,55.40
2023-05-03T06:55:00.353Z,55.12
2023-05-03T06:57:28.783Z,55.19
2023-05-03T06:59:55.405Z,55.21
2023-05-03T07:02:22.000Z,55.37
2023-05-03T07:04:48.415Z,55.20
2023-05-03T07:07:14.885Z,55.13
2023-05-03T07:09:43.548Z,55.59
2023-05-03T07:12:10.547Z,55.30
2023-05-03T07:14:37.002Z,55.34
2023-05-03T07:17:03.392Z,55.50
2023-05-03T07:19:29.698Z,55.29
2023-05-03T07:21:56.491Z,55.58
2023-05-03T07:24:22.902Z,55.69
2023-05-03T07:26:49.706Z,55.34
2023-05-03T07:29:16.453Z,55.24
2023-05-03T07:31:43.495Z,55.31
2023-05-03T07:34:09.892Z,55.50
2023-05-03T07:36:36.182Z,55.39
2023-05-03T07:39:02.535Z,55.38
2023-05-03T07:41:29.654Z,55.19
2023-05-03T07:43:56.175Z,55.11
2023-05-03T07:46:22.904Z,55.12
2023-05-03T07:48:49.478Z,55.25
2023-05-03T07:51:16.067Z,55.26
2023-05-03T07:53:45.151Z,55.40
2023-05-03T07:56:11.758Z,55.42
2023-05-03T07:58:40.417Z,55.36
2023-05-03T08:01:07.082Z,54.97
2023-05-03T08:03:33.749Z,55.33
2023-05-03T08:06:00.410Z,55.32
2023-05-03T08:08:27.202Z,55.16
2023-05-03T08:10:54.058Z,55.07
2023-05-03T08:13:20.476Z,55.27
2023-05-03T08:15:46.823Z,55.37
2023-05-03T08:18:13.378Z,55.40
2023-05-03T08:20:39.863Z,55.44
2023-05-03T08:23:06.412Z,55.53
2023-05-03T08:25:32.937Z,55.49
2023-05-03T08:27:59.569Z,55.41
2023-05-03T08:30:26.086Z,55.46
2023-05-03T08:32:53.193Z,55.40
2023-05-03T08:35:19.883Z,55.36
2023-05-03T08:37:46.245Z,55.19
2023-05-03T08:40:12.605Z,55.20
2023-05-03T08:42:38.985Z,55.10
2023-05-03T08:45:05.316Z,55.45
2023-05-03T08:47:32.263Z,55.15
2023-05-03T08:49:58.695Z,55.39
2023-05-03T08:52:25.210Z,55.19
2023-05-03T08:54:51.515Z,55.42
2023-05-03T08:57:18.061Z,55.24
2023-05-03T08:59:44.622Z,55.40
2023-05-03T09:02:11.084Z,55.12
2023-05-03T09:04:37.923Z,55.22
2023-05-03T09:07:04.436Z,55.33
2023-05-03T09:09:30.736Z,55.35
2023-05-03T09:11:57.310Z,55.31
2023-05-03T09:14:23.850Z,55.39
2023-05-03T09:16:50.355Z,55.52
2023-05-03T09:19:16.751Z,55.28
2023-05-03T09:21:43.138Z,55.38
2023-05-03T09:24:09.800Z,55.25
2023-05-03T09:26:37.609Z,55.05
2023-05-03T09:29:06.410Z,55.28
2023-05-03T09:31:33.069Z,55.18
2023-05-03T09:33:59.770Z,55.26
2023-05-03T09:36:26.221Z,55.37
2023-05-03T09:38:52.718Z,55.30
2023-05-03T09:41:19.109Z,55.14
2023-05-03T09:43:47.259Z,55.13
2023-05-03T09:46:13.904Z,55.50
2023-05-03T09:48:40.368Z,55.31
2023-05-03T09:51:06.975Z,55.18
2023-05-03T09:53:33.710Z,55.47
2023-05-03T09:56:00.132Z,55.38
2023-05-03T09:58:26.456Z,55.28
2023-05-03T10:00:52.884Z,55.30
2023-05-03T10:03:19.550Z,55.35
2023-05-03T10:05:45.926Z,55.41
2023-05-03T10:08:14.230Z,55.35
2023-05-03T10:10:40.861Z,55.46
2023-05-03T10:13:07.312Z,55.41
2023-05-03T10:15:34.143Z,55.40
2023-05-03T10:18:00.715Z,55.26
2023-05-03T10:20:27.331Z,55.12
2023-05-03T10:22:53.702Z,55.11
2023-05-03T10:25:20.375Z,55.06
2023-05-03T10:27:46.727Z,55.15
2023-05-03T10:30:13.595Z,55.38
2023-05-03T10:32:40.323Z,55.44
2023-05-03T10:35:07.036Z,55.16
2023-05-03T10:37:33.595Z,55.33
2023-05-03T10:39:59.905Z,55.09
2023-05-03T10:42:26.418Z,55.11
2023-05-03T10:44:52.944Z,55.22
2023-05-03T10:47:19.391Z,54.95
2023-05-03T10:49:45.810Z,55.11
2023-05-03T10:52:12.502Z,55.25
2023-05-03T10:54:38.916Z,55.46
2023-05-03T10:57:05.396Z,55.11
2023-05-03T10:59:32.019Z,55.29
2023-05-03T11:01:58.445Z,55.14
2023-05-03T11:04:25.076Z,55.29
2023-05-03T11:06:51.953Z,55.04
2023-05-03T11:09:18.625Z,54.99
2023-05-03T11:11:45.033Z,55.08
2023-05-03T11:14:11.710Z,55.04
2023-05-03T11:16:38.423Z,54.93
2023-05-03T11:19:05.057Z,54.96
2023-05-03T11:21:31.537Z,54.89
2023-05-03T11:23:57.936Z,55.08
2023-05-03T11:26:24.250Z,55.05
2023-05-03T11:28:50.583Z,54.94
2023-05-03T11:31:16.933Z,54.85
2023-05-03T11:33:43.466Z,55.04
2023-05-03T11:36:10.059Z,54.85
2023-05-03T11:38:36.397Z,54.85
2023-05-03T11:41:02.914Z,54.92
2023-05-03T11:43:32.029Z,54.95
2023-05-03T11:45:58.696Z,54.96
2023-05-03T11:48:25.148Z,54.70
2023-05-03T11:50:51.833Z,54.91
2023-05-03T11:53:18.773Z,54.68
2023-05-03T11:55:45.460Z,54.65
2023-05-03T11:58:11.858Z,54.96
2023-05-03T12:00:38.486Z,54.97
2023-05-03T12:03:05.435Z,54.89
2023-05-03T12:05:32.235Z,54.92
2023-05-03T12:07:59.826Z,54.94
2023-05-03T12:10:29.778Z,54.68
2023-05-03T12:13:00.246Z,54.90
2023-05-03T12:15:27.619Z,54.72
2023-05-03T12:17:54.984Z,54.80
2023-05-03T12:22:52.484Z,54.85
2023-05-03T12:25:20.878Z,54.70
2023-05-03T12:27:55.996Z,54.85
2023-05-03T12:30:34.021Z,54.67
2023-05-03T12:33:03.678Z,54.85
2023-05-03T12:35:33.511Z,54.68
2023-05-03T12:38:03.050Z,55.00
2023-05-03T12:40:34.350Z,54.81
2023-05-03T12:43:01.301Z,54.83
2023-05-03T12:45:28.496Z,54.58
2023-05-03T12:47:55.336Z,54.67
2023-05-03T12:50:24.820Z,54.49
2023-05-03T12:52:53.100Z,53.59
2023-05-03T12:55:25.015Z,53.34
2023-05-03T12:58:13.391Z,53.34
2023-05-03T13:00:45.550Z,52.43
2023-05-03T13:03:21.367Z,52.12
2023-05-03T13:05:48.788Z,52.44
2023-05-03T13:08:21.154Z,51.92
2023-05-03T13:10:48.728Z,51.69
2023-05-03T13:13:15.211Z,51.42
2023-05-03T13:15:41.515Z,51.41
2023-05-03T13:18:08.174Z,51.83
2023-05-03T13:20:35.032Z,51.43
2023-05-03T13:23:01.902Z,51.23
2023-05-03T13:25:28.288Z,51.20
2023-05-03T13:27:54.729Z,51.25
2023-05-03T13:30:21.173Z,50.75
2023-05-03T13:32:47.952Z,50.73
2023-05-03T13:35:14.413Z,50.36
2023-05-03T13:37:41.040Z,50.20
2023-05-03T13:40:07.649Z,50.12
2023-05-03T13:42:34.146Z,50.05
2023-05-03T13:45:00.773Z,50.32
2023-05-03T13:47:33.033Z,50.44
2023-05-03T13:50:11.250Z,50.73
2023-05-03T13:52:39.073Z,50.82
2023-05-03T13:55:05.515Z,51.00
2023-05-03T13:57:32.124Z,51.01
2023-05-03T13:59:58.532Z,51.33
2023-05-03T14:02:25.331Z,51.24
2023-05-03T14:04:51.778Z,51.29
2023-05-03T14:07:18.454Z,51.29
2023-05-03T14:09:44.847Z,51.82
2023-05-03T14:12:11.609Z,51.80
2023-05-03T14:14:38.243Z,51.61
2023-05-03T14:17:04.835Z,51.80
2023-05-03T14:19:32.444Z,52.14
2023-05-03T14:21:58.887Z,51.93
2023-05-03T14:24:25.239Z,52.06
2023-05-03T14:26:51.575Z,52.25
2023-05-03T14:29:17.975Z,52.44
2023-05-03T14:31:44.394Z,52.59
2023-05-03T14:34:11.033Z,52.48
2023-05-03T14:36:37.474Z,52.60
2023-05-03T14:39:05.716Z,52.82
2023-05-03T14:41:32.197Z,52.86
2023-05-03T14:43:58.681Z,52.76
2023-05-03T14:46:25.456Z,52.89
2023-05-03T14:48:51.952Z,53.08
2023-05-03T14:51:18.598Z,52.76
2023-05-03T14:53:44.993Z,52.81
2023-05-03T14:56:11.557Z,53.21
2023-05-03T14:58:38.281Z,53.09
2023-05-03T15:01:05.081Z,53.15
2023-05-03T15:03:31.472Z,53.14
2023-05-03T15:05:57.931Z,53.36
2023-05-03T15:08:24.752Z,53.26
2023-05-03T15:10:51.113Z,53.39
2023-05-03T15:13:17.834Z,53.71
2023-05-03T15:15:44.374Z,53.65
2023-05-03T15:18:11.615Z,53.66
2023-05-03T15:20:38.073Z,53.92
2023-05-03T15:23:04.429Z,54.06
2023-05-03T15:25:30.844Z,54.12
2023-05-03T15:27:57.248Z,53.88
2023-05-03T15:30:23.589Z,54.10
2023-05-03T15:32:50.054Z,54.02
2023-05-03T15:35:16.617Z,53.79
2023-05-03T15:37:42.957Z,54.03
2023-05-03T15:40:09.393Z,54.36
2023-05-03T15:42:37.364Z,54.13
2023-05-03T15:45:03.983Z,54.60
2023-05-03T15:47:30.336Z,54.22
2023-05-03T15:49:56.701Z,54.67
2023-05-03T15:52:23.238Z,54.34
2023-05-03T15:54:49.676Z,54.51
2023-05-03T15:57:16.138Z,54.45
2023-05-03T15:59:43.027Z,54.63
2023-05-03T16:02:09.526Z,54.69
2023-05-03T16:04:36.061Z,54.76
2023-05-03T16:07:02.438Z,54.78
2023-05-03T16:09:28.822Z,54.60
2023-05-03T16:11:55.281Z,54.78
2023-05-03T16:14:21.651Z,54.65
2023-05-03T16:16:48.605Z,54.81
2023-05-03T16:19:17.009Z,54.74
2023-05-03T16:21:43.458Z,54.68
2023-05-03T16:24:09.828Z,55.01
2023-05-03T16:26:36.596Z,54.84
2023-05-03T16:29:02.928Z,54.88
2023-05-03T16:31:29.329Z,54.79
2023-05-03T16:33:55.993Z,54.82
2023-05-03T16:36:22.488Z,54.94
2023-05-03T16:38:49.468Z,54.94
2023-05-03T16:41:15.922Z,55.02
2023-05-03T16:43:42.238Z,54.66
2023-05-03T16:46:08.588Z,54.82
2023-05-03T16:48:35.425Z,54.55
2023-05-03T16:51:01.751Z,54.80
2023-05-03T16:53:28.192Z,54.76
2023-05-03T16:55:54.547Z,54.61
2023-05-03T16:58:21.173Z,54.26
2023-05-03T17:00:47.843Z,54.35
2023-05-03T17:03:14.297Z,54.64
2023-05-03T17:05:41.445Z,54.56
2023-05-03T17:08:08.016Z,54.64
2023-05-03T17:10:34.443Z,54.58
2023-05-03T17:13:00.843Z,54.55
2023-05-03T17:15:27.969Z,54.26
2023-05-03T17:17:56.078Z,54.57
2023-05-03T17:20:22.412Z,54.41
2023-05-03T17:22:49.598Z,54.64
2023-05-03T17:25:16.064Z,54.62
2023-05-03T17:27:42.751Z,54.45
2023-05-03T17:30:09.358Z,54.67
2023-05-03T17:32:35.735Z,54.59
2023-05-03T17:35:02.367Z,54.63
2023-05-03T17:37:29.122Z,54.27
2023-05-03T17:39:55.599Z,54.21
2023-05-03T17:42:22.077Z,54.36
2023-05-03T17:44:48.669Z,54.40
2023-05-03T17:47:15.449Z,54.48
2023-05-03T17:49:41.999Z,54.18
2023-05-03T17:52:08.370Z,54.43
2023-05-03T17:54:34.895Z,54.38
2023-05-03T17:57:01.542Z,54.45
2023-05-03T17:59:27.906Z,54.34
2023-05-03T18:01:54.556Z,54.27
2023-05-03T18:04:21.101Z,54.17
2023-05-03T18:06:47.506Z,54.59
2023-05-03T18:09:13.844Z,54.43
2023-05-03T18:11:40.463Z,54.36
2023-05-03T18:14:07.191Z,54.21
2023-05-03T18:16:33.624Z,54.16
2023-05-03T18:19:00.012Z,54.34
2023-05-03T18:21:26.660Z,54.08
2023-05-03T18:23:53.382Z,54.36
2023-05-03T18:26:20.055Z,54.28
2023-05-03T18:28:46.829Z,54.27
2023-05-03T18:31:13.218Z,54.39
2023-05-03T18:33:41.080Z,54.12
2023-05-03T18:36:08.054Z,54.38
2023-05-03T18:38:34.783Z,54.04
2023-05-03T18:41:01.207Z,54.08
2023-05-03T18:43:27.552Z,54.10
2023-05-03T18:45:53.874Z,53.98
2023-05-03T18:48:20.641Z,54.17
2023-05-03T18:50:47.323Z,54.38
2023-05-03T18:53:23.548Z,54.22
2023-05-03T18:55:49.886Z,54.37
2023-05-03T18:58:16.290Z,53.94
2023-05-03T19:00:43.175Z,53.97
2023-05-03T19:03:09.593Z,54.31
2023-05-03T19:05:36.256Z,54.17
2023-05-03T19:08:02.682Z,54.29
2023-05-03T19:10:29.116Z,54.25
2023-05-03T19:12:55.487Z,53.95
2023-05-03T19:15:21.895Z,54.09
2023-05-03T19:17:48.316Z,54.12
2023-05-03T19:20:14.702Z,54.18
2023-05-03T19:22:41.220Z,54.20
2023-05-03T19:25:07.649Z,53.98
2023-05-03T19:27:34.095Z,53.90
2023-05-03T19:30:00.497Z,54.14
2023-05-03T19:32:27.361Z,53.87
2023-05-03T19:34:54.150Z,54.08
2023-05-03T19:37:20.489Z,54.10
2023-05-03T19:39:47.254Z,53.87
2023-05-03T19:42:13.632Z,53.84
2023-05-03T19:44:41.732Z,53.88
2023-05-03T19:47:08.369Z,53.89
2023-05-03T19:49:34.861Z,53.98
2023-05-03T19:52:02.213Z,54.07
2023-05-03T19:54:28.580Z,53.92
2023-05-03T19:56:55.304Z,53.77
2023-05-03T19:59:21.625Z,53.81
2023-05-03T20:01:48.108Z,54.07
2023-05-03T20:04:14.544Z,53.90
2023-05-03T20:06:41.049Z,53.77
2023-05-03T20:09:07.452Z,54.06
2023-05-03T20:11:33.876Z,54.03
2023-05-03T20:14:00.339Z,53.84
2023-05-03T20:16:27.019Z,54.09
2023-05-03T20:18:53.458Z,53.84
2023-05-03T20:21:19.852Z,53.84
2023-05-03T20:23:46.916Z,53.81
2023-05-03T20:26:13.214Z,54.04
2023-05-03T20:28:39.551Z,54.06
2023-05-03T20:31:05.856Z,53.97
2023-05-03T20:33:32.388Z,53.94
2023-05-03T20:35:59.064Z,54.15
2023-05-03T20:38:25.462Z,53.88
2023-05-03T20:40:51.800Z,54.08
2023-05-03T20:43:18.170Z,53.91
2023-05-03T20:45:44.927Z,53.92
2023-05-03T20:48:11.426Z,53.88
2023-05-03T20:50:38.030Z,54.13
2023-05-03T20:53:04.786Z,53.68
2023-05-03T20:55:31.428Z,54.11
2023-05-03T20:57:57.878Z,54.07
2023-05-03T21:00:24.317Z,54.03
2023-05-03T21:02:50.711Z,54.10
2023-05-03T21:05:17.510Z,53.91
2023-05-03T21:07:46.099Z,54.14
2023-05-03T21:10:12.589Z,54.11
2023-05-03T21:12:39.105Z,54.05
2023-05-03T21:15:05.806Z,54.03
2023-05-03T21:17:32.528Z,53.88
2023-05-03T21:19:59.385Z,54.05
2023-05-03T21:22:25.754Z,53.75
2023-05-03T21:24:52.381Z,54.10
2023-05-03T21:27:18.745Z,54.12
2023-05-03T21:29:45.410Z,54.15
2023-05-03T21:32:21.617Z,53.70
2023-05-03T21:34:48.005Z,54.10
2023-05-03T21:37:14.382Z,54.12
2023-05-03T21:39:40.728Z,53.75
2023-05-03T21:42:07.219Z,54.04
2023-05-03T21:44:33.661Z,54.14
2023-05-03T21:47:00.679Z,54.12
2023-05-03T21:49:27.579Z,54.05
2023-05-03T21:51:53.962Z,54.06
2023-05-03T21:54:20.452Z,53.99
2023-05-03T21:56:46.769Z,54.12
2023-05-03T21:59:13.374Z,54.16
2023-05-03T22:01:40.139Z,53.89
2023-05-03T22:04:07.169Z,53.94
2023-05-03T22:06:33.581Z,53.89
2023-05-03T22:09:00.164Z,53.88
2023-05-03T22:11:36.387Z,53.89
2023-05-03T22:14:07.549Z,54.16
2023-05-03T22:16:44.590Z,53.84
2023-05-03T22:19:11.797Z,53.92
2023-05-03T22:21:38.182Z,54.09
2023-05-03T22:24:04.558Z,54.08
2023-05-03T22:26:31.298Z,54.05
2023-05-03T22:28:57.753Z,53.94
2023-05-03T22:31:24.264Z,54.18
2023-05-03T22:33:50.676Z,53.98
2023-05-03T22:36:17.137Z,53.88
2023-05-03T22:38:43.685Z,53.97
2023-05-03T22:41:10.332Z,53.93
2023-05-03T22:43:36.728Z,53.93
2023-05-03T22:46:03.169Z,54.10
2023-05-03T22:48:29.740Z,53.87
2023-05-03T22:50:56.256Z,54.16
2023-05-03T22:53:24.196Z,53.78
2023-05-03T22:55:50.951Z,53.95
2023-05-03T22:58:17.400Z,53.80
2023-05-03T23:00:44.548Z,54.11
2023-05-03T23:03:11.217Z,54.23
2023-05-03T23:05:39.138Z,54.00
2023-05-03T23:08:05.960Z,53.88
2023-05-03T23:10:32.237Z,54.01
2023-05-03T23:12:58.724Z,54.17
2023-05-03T23:15:25.114Z,53.77
2023-05-03T23:17:51.538Z,53.86
2023-05-03T23:20:18.168Z,54.03
2023-05-03T23:22:44.491Z,54.01
2023-05-03T23:25:10.852Z,53.95
2023-05-03T23:27:37.369Z,53.99
2023-05-03T23:30:04.694Z,53.92
2023-05-03T23:32:31.652Z,53.74
2023-05-03T23:34:58.588Z,54.12
2023-05-03T23:37:27.489Z,54.03
2023-05-03T23:39:54.016Z,53.96
2023-05-03T23:42:20.355Z,53.85
2023-05-03T23:44:54.745Z,54.14
2023-05-03T23:47:21.978Z,54.08
2023-05-03T23:49:48.315Z,54.01
2023-05-03T23:52:14.777Z,54.15
2023-05-03T23:54:41.093Z,53.85
2023-05-03T23:57:07.594Z,53.93
2023-05-03T23:59:34.168Z,54.03
